createdAt,value
2022-10-02T00:01:10.130Z,999.4
2022-10-02T00:02:26.412Z,999.5
2022-10-02T00:03:42.714Z,999.4
2022-10-02T00:04:58.999Z,999.5
2022-10-02T00:06:15.291Z,999.5
2022-10-02T00:07:31.579Z,999.6
2022-10-02T00:08:47.875Z,999.6
2022-10-02T00:10:04.164Z,999.6
2022-10-02T00:11:19.491Z,999.6
2022-10-02T00:12:35.784Z,999.6
2022-10-02T00:13:52.077Z,999.7
2022-10-02T00:15:08.368Z,999.7
2022-10-02T00:16:24.649Z,999.7
2022-10-02T00:17:40.937Z,999.7
2022-10-02T00:18:57.236Z,999.7
2022-10-02T00:20:13.532Z,999.8
2022-10-02T00:21:29.822Z,999.7
2022-10-02T00:22:46.123Z,999.7
2022-10-02T00:24:02.400Z,999.8
2022-10-02T00:25:18.708Z,999.8
2022-10-02T00:26:34.999Z,999.8
2022-10-02T00:27:50.303Z,999.9
2022-10-02T00:29:06.596Z,999.8
2022-10-02T00:30:22.882Z,999.8
2022-10-02T00:31:39.179Z,999.8
2022-10-02T00:32:55.467Z,999.8
2022-10-02T00:34:11.779Z,999.8
2022-10-02T00:35:28.062Z,999.9
2022-10-02T00:36:44.357Z,999.9
2022-10-02T00:38:00.641Z,999.9
2022-10-02T00:39:16.946Z,999.9
2022-10-02T00:40:33.230Z,999.8
2022-10-02T00:41:49.529Z,999.8
2022-10-02T00:43:05.819Z,999.8
2022-10-02T00:44:21.128Z,999.8
2022-10-02T00:45:37.415Z,999.8
2022-10-02T00:46:53.714Z,999.9
2022-10-02T00:48:09.995Z,999.9
2022-10-02T00:49:26.298Z,999.9
2022-10-02T00:50:42.590Z,999.9
2022-10-02T00:51:58.881Z,999.9
2022-10-02T00:53:15.179Z,999.9
2022-10-02T00:54:31.464Z,1000
2022-10-02T00:55:47.762Z,1000
2022-10-02T00:57:04.060Z,1000
2022-10-02T00:58:20.344Z,1000
2022-10-02T00:59:36.630Z,999.9
2022-10-02T01:00:51.949Z,999.9
2022-10-02T01:02:08.246Z,1000
2022-10-02T01:03:24.539Z,1000
2022-10-02T01:04:40.836Z,1000
2022-10-02T01:05:57.126Z,1000
2022-10-02T01:07:13.419Z,1000.1
2022-10-02T01:08:29.705Z,1000
2022-10-02T01:09:45.996Z,1000.1
2022-10-02T01:11:02.279Z,1000.1
2022-10-02T01:12:18.586Z,1000.1
2022-10-02T01:13:34.873Z,1000.1
2022-10-02T01:14:51.161Z,1000
2022-10-02T01:16:07.460Z,1000
2022-10-02T01:17:22.775Z,1000.1
2022-10-02T01:18:39.063Z,1000.1
2022-10-02T01:19:55.347Z,1000.1
2022-10-02T01:21:11.649Z,1000.1
2022-10-02T01:22:27.947Z,1000.2
2022-10-02T01:23:44.237Z,1000.1
2022-10-02T01:25:00.529Z,1000.1
2022-10-02T01:26:16.819Z,1000.1
2022-10-02T01:27:33.115Z,1000.1
2022-10-02T01:28:49.402Z,1000.2
2022-10-02T01:30:05.689Z,1000.2
2022-10-02T01:31:21.998Z,1000.2
2022-10-02T01:32:38.275Z,1000.2
2022-10-02T01:33:53.587Z,1000.2
2022-10-02T01:35:09.880Z,1000.3
2022-10-02T01:37:42.464Z,1000.3
2022-10-02T01:38:58.761Z,1000.3
2022-10-02T01:40:15.058Z,1000.4
2022-10-02T01:41:31.345Z,1000.3
2022-10-02T01:42:47.647Z,1000.3
2022-10-02T01:44:03.933Z,1000.3
2022-10-02T01:45:20.230Z,1000.3
2022-10-02T01:46:36.521Z,1000.3
2022-10-02T01:47:52.821Z,1000.3
2022-10-02T01:49:09.112Z,1000.3
2022-10-02T01:50:24.419Z,1000.3
2022-10-02T01:51:40.704Z,1000.3
2022-10-02T01:52:56.988Z,1000.3
2022-10-02T01:54:13.281Z,1000.3
2022-10-02T01:55:29.591Z,1000.3
2022-10-02T01:56:45.870Z,1000.3
2022-10-02T01:58:02.176Z,1000.3
2022-10-02T01:59:18.467Z,1000.4
2022-10-02T02:00:34.750Z,1000.4
2022-10-02T02:01:51.051Z,1000.4
2022-10-02T02:03:07.330Z,1000.4
2022-10-02T02:04:23.626Z,1000.4
2022-10-02T02:05:39.930Z,1000.5
2022-10-02T02:06:55.233Z,1000.5
2022-10-02T02:08:11.531Z,1000.5
2022-10-02T02:09:27.813Z,1000.6
2022-10-02T02:10:44.110Z,1000.6
2022-10-02T02:12:00.399Z,1000.6
2022-10-02T02:13:16.697Z,1000.6
2022-10-02T02:14:32.985Z,1000.6
2022-10-02T02:15:49.283Z,1000.6
2022-10-02T02:17:05.578Z,1000.6
2022-10-02T02:18:21.866Z,1000.7
2022-10-02T02:19:38.159Z,1000.7
2022-10-02T02:20:54.461Z,1000.6
2022-10-02T02:22:10.744Z,1000.6
2022-10-02T02:23:26.054Z,1000.5
2022-10-02T02:24:42.351Z,1000.5
2022-10-02T02:25:58.649Z,1000.5
2022-10-02T02:27:14.944Z,1000.5
2022-10-02T02:28:31.220Z,1000.4
2022-10-02T02:29:47.510Z,1000.5
2022-10-02T02:31:03.807Z,1000.5
2022-10-02T02:32:20.110Z,1000.5
2022-10-02T02:33:36.388Z,1000.5
2022-10-02T02:34:52.693Z,1000.5
2022-10-02T02:36:08.990Z,1000.5
2022-10-02T02:37:25.277Z,1000.5
2022-10-02T02:38:41.568Z,1000.5
2022-10-02T02:39:56.879Z,1000.5
2022-10-02T02:41:13.166Z,1000.5
2022-10-02T02:42:29.472Z,1000.5
2022-10-02T02:43:45.749Z,1000.6
2022-10-02T02:45:02.038Z,1000.5
2022-10-02T02:46:18.340Z,1000.5
2022-10-02T02:48:49.955Z,1000.6
2022-10-02T02:50:05.263Z,1000.6
2022-10-02T02:51:21.549Z,1000.6
2022-10-02T02:52:37.856Z,1000.6
2022-10-02T02:53:54.143Z,1000.6
2022-10-02T02:55:10.439Z,1000.6
2022-10-02T02:56:26.721Z,1000.6
2022-10-02T02:57:43.018Z,1000.7
2022-10-02T02:58:59.308Z,1000.7
2022-10-02T03:00:15.600Z,1000.7
2022-10-02T03:01:31.890Z,1000.6
2022-10-02T03:02:48.195Z,1000.7
2022-10-02T03:04:04.487Z,1000.6
2022-10-02T03:05:20.781Z,1000.6
2022-10-02T03:06:36.077Z,1000.6
2022-10-02T03:07:52.381Z,1000.6
2022-10-02T03:09:08.664Z,1000.6
2022-10-02T03:10:24.959Z,1000.6
2022-10-02T03:11:41.257Z,1000.6
2022-10-02T03:12:57.555Z,1000.6
2022-10-02T03:14:13.840Z,1000.6
2022-10-02T03:15:30.133Z,1000.7
2022-10-02T03:16:46.422Z,1000.7
2022-10-02T03:18:02.709Z,1000.7
2022-10-02T03:19:19.015Z,1000.7
2022-10-02T03:20:35.309Z,1000.7
2022-10-02T03:21:51.592Z,1000.7
2022-10-02T03:23:07.998Z,1000.7
2022-10-02T03:24:24.310Z,1000.7
2022-10-02T03:25:40.594Z,1000.8
2022-10-02T03:26:56.876Z,1000.7
2022-10-02T03:28:13.172Z,1000.8
2022-10-02T03:29:29.474Z,1000.8
2022-10-02T03:30:45.762Z,1000.8
2022-10-02T03:32:02.059Z,1000.8
2022-10-02T03:33:18.357Z,1000.8
2022-10-02T03:34:34.647Z,1000.7
2022-10-02T03:35:50.929Z,1000.8
2022-10-02T03:37:07.233Z,1000.8
2022-10-02T03:38:23.531Z,1000.8
2022-10-02T03:39:38.841Z,1000.8
2022-10-02T03:40:55.129Z,1000.8
2022-10-02T03:42:11.420Z,1000.8
2022-10-02T03:43:27.712Z,1000.9
2022-10-02T03:44:44.008Z,1000.9
2022-10-02T03:46:00.301Z,1000.9
2022-10-02T03:47:16.582Z,1000.9
2022-10-02T03:48:32.887Z,1000.9
2022-10-02T03:49:49.179Z,1000.9
2022-10-02T03:51:05.460Z,1000.9
2022-10-02T03:52:21.756Z,1000.9
2022-10-02T03:53:38.047Z,1000.9
2022-10-02T03:54:54.351Z,1000.9
2022-10-02T03:56:09.644Z,1000.9
2022-10-02T03:57:25.944Z,1000.9
2022-10-02T03:58:42.229Z,1000.9
2022-10-02T03:59:58.525Z,1000.9
2022-10-02T04:01:14.814Z,1000.9
2022-10-02T04:02:31.120Z,1000.9
2022-10-02T04:03:47.408Z,1000.9
2022-10-02T04:05:03.691Z,1000.9
2022-10-02T04:06:19.996Z,1001
2022-10-02T04:07:36.279Z,1001
2022-10-02T04:08:52.579Z,1000.9
2022-10-02T04:10:08.864Z,1000.9
2022-10-02T04:11:25.162Z,1000.9
2022-10-02T04:12:40.481Z,1000.9
2022-10-02T04:13:56.763Z,1000.8
2022-10-02T04:15:13.059Z,1000.9
2022-10-02T04:16:29.347Z,1000.9
2022-10-02T04:17:45.637Z,1000.8
2022-10-02T04:19:01.930Z,1000.8
2022-10-02T04:20:18.235Z,1000.8
2022-10-02T04:21:34.520Z,1000.9
2022-10-02T04:22:50.818Z,1000.7
2022-10-02T04:24:07.117Z,1000.8
2022-10-02T04:25:23.411Z,1000.9
2022-10-02T04:26:39.698Z,1000.8
2022-10-02T04:27:55.996Z,1000.8
2022-10-02T04:29:11.292Z,1000.9
2022-10-02T04:30:27.583Z,1000.9
2022-10-02T04:31:43.887Z,1000.9
2022-10-02T04:33:00.175Z,1001
2022-10-02T04:34:16.464Z,1000.9
2022-10-02T04:35:32.753Z,1000.9
2022-10-02T04:36:49.057Z,1000.9
2022-10-02T04:38:05.345Z,1001
2022-10-02T04:39:21.648Z,1001
2022-10-02T04:40:37.931Z,1001
2022-10-02T04:41:54.170Z,1001
2022-10-02T04:43:10.424Z,1001
2022-10-02T04:44:26.665Z,1001
2022-10-02T04:45:41.978Z,1000.9
2022-10-02T04:46:58.221Z,1000.9
2022-10-02T04:48:14.466Z,1000.9
2022-10-02T04:49:30.757Z,1000.9
2022-10-02T04:50:47.002Z,1000.9
2022-10-02T04:52:03.243Z,1001
2022-10-02T04:53:19.481Z,1000.9
2022-10-02T04:54:35.719Z,1000.9
2022-10-02T04:55:51.956Z,1000.9
2022-10-02T04:58:24.444Z,1001
2022-10-02T04:59:40.681Z,1001.1
2022-10-02T05:00:56.905Z,1001.1
2022-10-02T05:02:12.161Z,1001.1
2022-10-02T05:03:28.396Z,1001.1
2022-10-02T05:04:44.643Z,1001
2022-10-02T05:06:00.893Z,1001
2022-10-02T05:07:17.128Z,1001
2022-10-02T05:08:33.353Z,1001
2022-10-02T05:09:49.596Z,1001.1
2022-10-02T05:11:05.848Z,1001.1
2022-10-02T05:12:22.087Z,1001.1
2022-10-02T05:13:38.313Z,1001.1
2022-10-02T05:14:54.556Z,1001.2
2022-10-02T05:16:10.805Z,1001.2
2022-10-02T05:17:27.040Z,1001.2
2022-10-02T05:18:42.279Z,1001.2
2022-10-02T05:19:58.529Z,1001.2
2022-10-02T05:21:14.772Z,1001.2
2022-10-02T05:22:30.997Z,1001.2
2022-10-02T05:23:47.000Z,1001.2
2022-10-02T05:25:03.491Z,1001.2
2022-10-02T05:26:19.716Z,1001.2
2022-10-02T05:27:35.970Z,1001.2
2022-10-02T05:28:52.209Z,1001.2
2022-10-02T05:30:08.431Z,1001.3
2022-10-02T05:31:24.672Z,1001.2
2022-10-02T05:32:40.926Z,1001.3
2022-10-02T05:33:57.156Z,1001.3
2022-10-02T05:35:12.404Z,1001.3
2022-10-02T05:36:28.646Z,1001.3
2022-10-02T05:37:44.895Z,1001.2
2022-10-02T05:39:01.126Z,1001.3
2022-10-02T05:40:17.357Z,1001.2
2022-10-02T05:41:33.605Z,1001.2
2022-10-02T05:42:49.834Z,1001.2
2022-10-02T05:44:06.088Z,1001.2
2022-10-02T05:45:22.324Z,1001.2
2022-10-02T05:46:38.554Z,1001.2
2022-10-02T05:47:54.790Z,1001.2
2022-10-02T05:49:11.042Z,1001.2
2022-10-02T05:50:27.267Z,1001.2
2022-10-02T05:51:42.535Z,1001.2
2022-10-02T05:52:58.766Z,1001.2
2022-10-02T05:54:15.013Z,1001.2
2022-10-02T05:55:31.249Z,1001.2
2022-10-02T05:58:03.723Z,1001.2
2022-10-02T05:59:19.959Z,1001.2
2022-10-02T06:00:36.210Z,1001.2
2022-10-02T06:01:52.437Z,1001.1
2022-10-02T06:03:08.689Z,1001.1
2022-10-02T06:04:24.929Z,1001.1
2022-10-02T06:05:41.154Z,1001.1
2022-10-02T06:06:57.390Z,1001.1
2022-10-02T06:08:12.655Z,1001
2022-10-02T06:09:28.891Z,1001.1
2022-10-02T06:10:45.131Z,1001
2022-10-02T06:12:01.369Z,1001
2022-10-02T06:13:17.611Z,1001.1
2022-10-02T06:14:33.852Z,1001.1
2022-10-02T06:15:50.084Z,1001.2
2022-10-02T06:17:06.317Z,1001.2
2022-10-02T06:18:22.563Z,1001.2
2022-10-02T06:19:38.801Z,1001.2
2022-10-02T06:20:55.035Z,1001.3
2022-10-02T06:22:11.281Z,1001.2
2022-10-02T06:23:27.511Z,1001.2
2022-10-02T06:24:42.767Z,1001.2
2022-10-02T06:25:59.005Z,1001.2
2022-10-02T06:27:15.241Z,1001.3
2022-10-02T06:28:31.497Z,1001.2
2022-10-02T06:29:47.723Z,1001.3
2022-10-02T06:31:03.971Z,1001.2
2022-10-02T06:32:20.216Z,1001.3
2022-10-02T06:33:36.434Z,1001.3
2022-10-02T06:34:52.676Z,1001.2
2022-10-02T06:36:08.920Z,1001.2
2022-10-02T06:37:25.161Z,1001.1
2022-10-02T06:38:41.394Z,1001.1
2022-10-02T06:39:57.641Z,1001.1
2022-10-02T06:41:12.900Z,1001.1
2022-10-02T06:42:29.138Z,1001.1
2022-10-02T06:43:45.376Z,1001.2
2022-10-02T06:45:01.616Z,1001.1
2022-10-02T06:46:17.841Z,1001
2022-10-02T06:47:34.086Z,1001
2022-10-02T06:48:50.332Z,1001
2022-10-02T06:50:06.564Z,1001
2022-10-02T06:51:22.814Z,1001
2022-10-02T06:52:39.051Z,1001
2022-10-02T06:53:55.278Z,1000.9
2022-10-02T06:55:11.530Z,1001
2022-10-02T06:56:27.769Z,1000.9
2022-10-02T06:57:43.017Z,1000.9
2022-10-02T06:58:59.247Z,1000.9
2022-10-02T07:00:15.496Z,1000.9
2022-10-02T07:01:31.723Z,1001
2022-10-02T07:02:47.960Z,1001
2022-10-02T07:04:04.204Z,1001
2022-10-02T07:05:19.458Z,1001
2022-10-02T07:06:35.704Z,1001
2022-10-02T07:07:51.951Z,1001
2022-10-02T07:09:08.185Z,1001
2022-10-02T07:10:24.431Z,1001.1
2022-10-02T07:11:40.657Z,1001.1
2022-10-02T07:12:56.901Z,1001
2022-10-02T07:14:13.140Z,1001
2022-10-02T07:15:29.372Z,1001.1
2022-10-02T07:16:45.619Z,1001.1
2022-10-02T07:18:01.851Z,1001.1
2022-10-02T07:19:18.096Z,1001.1
2022-10-02T07:20:34.333Z,1001
2022-10-02T07:21:49.579Z,1001.1
2022-10-02T07:23:05.831Z,1001
2022-10-02T07:24:22.072Z,1000.9
2022-10-02T07:25:38.300Z,1000.9
2022-10-02T07:26:54.533Z,1001
2022-10-02T07:28:10.788Z,1000.8
2022-10-02T07:29:27.024Z,1000.9
2022-10-02T07:30:43.250Z,1000.9
2022-10-02T07:31:59.506Z,1000.9
2022-10-02T07:33:15.730Z,1000.9
2022-10-02T07:34:31.972Z,1000.9
2022-10-02T07:35:48.210Z,1000.9
2022-10-02T07:37:04.443Z,1000.9
2022-10-02T07:38:19.713Z,1000.9
2022-10-02T07:39:35.941Z,1001
2022-10-02T07:40:52.185Z,1001
2022-10-02T07:42:08.424Z,1001
2022-10-02T07:43:24.668Z,1001
2022-10-02T07:44:40.908Z,1001
2022-10-02T07:45:57.145Z,1001
2022-10-02T07:47:13.381Z,1000.9
2022-10-02T07:48:29.616Z,1000.9
2022-10-02T07:49:45.843Z,1000.9
2022-10-02T07:51:02.092Z,1000.9
2022-10-02T07:52:18.329Z,1000.9
2022-10-02T07:53:34.568Z,1000.8
2022-10-02T07:54:50.797Z,1000.9
2022-10-02T07:56:06.061Z,1000.9
2022-10-02T07:57:22.294Z,1000.9
2022-10-02T07:58:38.542Z,1000.9
2022-10-02T07:59:54.782Z,1000.9
2022-10-02T08:01:11.022Z,1000.9
2022-10-02T08:02:27.252Z,1000.9
2022-10-02T08:03:43.488Z,1001
2022-10-02T08:04:59.728Z,1001
2022-10-02T08:06:15.969Z,1001
2022-10-02T08:07:32.209Z,1001
2022-10-02T08:08:48.449Z,1001
2022-10-02T08:10:04.681Z,1001.1
2022-10-02T08:11:20.916Z,1001.1
2022-10-02T08:12:36.185Z,1001.1
2022-10-02T08:13:52.415Z,1001.1
2022-10-02T08:15:08.644Z,1001.2
2022-10-02T08:16:24.896Z,1001.2
2022-10-02T08:17:41.136Z,1001.2
2022-10-02T08:18:57.372Z,1001.1
2022-10-02T08:20:13.608Z,1001.1
2022-10-02T08:21:29.840Z,1001.1
2022-10-02T08:22:46.088Z,1001.2
2022-10-02T08:24:02.325Z,1001.2
2022-10-02T08:25:18.566Z,1001.2
2022-10-02T08:26:34.000Z,1001.2
2022-10-02T08:27:51.041Z,1001.2
2022-10-02T08:29:06.291Z,1001.1
2022-10-02T08:30:22.532Z,1001.1
2022-10-02T08:31:38.761Z,1001.1
2022-10-02T08:32:55.007Z,1001.1
2022-10-02T08:34:11.253Z,1001.1
2022-10-02T08:35:27.490Z,1001.2
2022-10-02T08:36:43.721Z,1001.2
2022-10-02T08:37:59.966Z,1001.2
2022-10-02T08:39:16.202Z,1001.2
2022-10-02T08:40:32.432Z,1001.2
2022-10-02T08:41:48.680Z,1001.1
2022-10-02T08:43:04.919Z,1001.1
2022-10-02T08:44:21.145Z,1001.1
2022-10-02T08:45:36.419Z,1001
2022-10-02T08:46:52.653Z,1001.1
2022-10-02T08:48:08.883Z,1001.1
2022-10-02T08:49:25.133Z,1001.1
2022-10-02T08:50:41.362Z,1001
2022-10-02T08:51:57.592Z,1001.1
2022-10-02T08:53:13.850Z,1001
2022-10-02T08:54:30.082Z,1001
2022-10-02T08:55:46.322Z,1001
2022-10-02T08:57:02.554Z,1001
2022-10-02T08:58:18.796Z,1001
2022-10-02T08:59:35.031Z,1000.9
2022-10-02T09:02:07.516Z,1001
2022-10-02T09:03:22.763Z,1000.9
2022-10-02T09:04:38.997Z,1001
2022-10-02T09:05:55.243Z,1001
2022-10-02T09:07:11.481Z,1001
2022-10-02T09:08:27.722Z,1001
2022-10-02T09:09:43.949Z,1001
2022-10-02T09:11:00.206Z,1000.9
2022-10-02T09:12:16.434Z,1000.9
2022-10-02T09:13:32.672Z,1000.9
2022-10-02T09:14:48.918Z,1000.9
2022-10-02T09:16:05.161Z,1000.9
2022-10-02T09:17:21.393Z,1000.8
2022-10-02T09:18:37.631Z,1000.9
2022-10-02T09:19:52.887Z,1000.8
2022-10-02T09:21:09.125Z,1000.9
2022-10-02T09:22:25.359Z,1000.8
2022-10-02T09:23:41.602Z,1000.8
2022-10-02T09:24:57.838Z,1000.9
2022-10-02T09:26:14.071Z,1000.8
2022-10-02T09:27:30.313Z,1000.9
2022-10-02T09:28:46.550Z,1000.9
2022-10-02T09:30:02.784Z,1000.8
2022-10-02T09:31:19.040Z,1000.8
2022-10-02T09:32:35.260Z,1000.8
2022-10-02T09:33:51.518Z,1000.7
2022-10-02T09:35:07.741Z,1000.7
2022-10-02T09:36:22.998Z,1000.8
2022-10-02T09:37:39.235Z,1000.7
2022-10-02T09:38:55.473Z,1000.6
2022-10-02T09:40:11.724Z,1000.7
2022-10-02T09:41:27.954Z,1000.5
2022-10-02T09:42:44.185Z,1000.6
2022-10-02T09:44:00.434Z,1000.6
2022-10-02T09:45:16.669Z,1000.6
2022-10-02T09:46:32.905Z,1000.6
2022-10-02T09:47:49.141Z,1000.6
2022-10-02T09:49:05.395Z,1000.5
2022-10-02T09:50:21.635Z,1000.7
2022-10-02T09:51:37.865Z,1000.6
2022-10-02T09:52:53.112Z,1000.6
2022-10-02T09:54:09.350Z,1000.6
2022-10-02T09:55:25.602Z,1000.6
2022-10-02T09:56:41.827Z,1000.6
2022-10-02T09:57:58.077Z,1000.6
2022-10-02T09:59:14.304Z,1000.6
2022-10-02T10:00:30.558Z,1000.6
2022-10-02T10:01:46.777Z,1000.7
2022-10-02T10:03:03.032Z,1000.6
2022-10-02T10:04:19.254Z,1000.6
2022-10-02T10:05:35.512Z,1000.5
2022-10-02T10:06:51.741Z,1000.4
2022-10-02T10:08:07.987Z,1000.6
2022-10-02T10:09:23.227Z,1000.4
2022-10-02T10:10:39.478Z,1000.5
2022-10-02T10:11:55.707Z,1000.6
2022-10-02T10:13:11.952Z,1000.6
2022-10-02T10:14:28.178Z,1000.5
2022-10-02T10:15:44.417Z,1000.6
2022-10-02T10:17:00.658Z,1000.5
2022-10-02T10:18:16.909Z,1000.5
2022-10-02T10:19:33.134Z,1000.4
2022-10-02T10:22:05.607Z,1000.5
2022-10-02T10:23:21.851Z,1000.5
2022-10-02T10:24:38.092Z,1000.5
2022-10-02T10:25:53.355Z,1000.5
2022-10-02T10:27:09.586Z,1000.6
2022-10-02T10:28:25.830Z,1000.6
2022-10-02T10:29:42.053Z,1000.6
2022-10-02T10:30:58.306Z,1000.5
2022-10-02T10:32:14.550Z,1000.6
2022-10-02T10:33:30.779Z,1000.6
2022-10-02T10:34:47.024Z,1000.6
2022-10-02T10:36:03.252Z,1000.6
2022-10-02T10:37:19.496Z,1000.6
2022-10-02T10:38:35.738Z,1000.5
2022-10-02T10:39:51.980Z,1000.5
2022-10-02T10:41:08.202Z,1000.5
2022-10-02T10:42:23.473Z,1000.4
2022-10-02T10:43:39.694Z,1000.5
2022-10-02T10:44:55.949Z,1000.4
2022-10-02T10:46:12.188Z,1000.5
2022-10-02T10:47:28.410Z,1000.5
2022-10-02T10:48:44.665Z,1000.5
2022-10-02T10:50:00.900Z,1000.5
2022-10-02T10:51:17.132Z,1000.5
2022-10-02T10:52:33.361Z,1000.5
2022-10-02T10:53:49.601Z,1000.6
2022-10-02T10:55:05.854Z,1000.5
2022-10-02T10:56:22.087Z,1000.6
2022-10-02T10:57:38.330Z,1000.5
2022-10-02T10:58:53.576Z,1000.5
2022-10-02T11:00:09.826Z,1000.6
2022-10-02T11:01:26.062Z,1000.5
2022-10-02T11:02:42.296Z,1000.5
2022-10-02T11:03:58.537Z,1000.6
2022-10-02T11:05:14.763Z,1000.5
2022-10-02T11:06:31.002Z,1000.5
2022-10-02T11:07:47.249Z,1000.6
2022-10-02T11:09:03.495Z,1000.6
2022-10-02T11:10:19.721Z,1000.5
2022-10-02T11:11:35.953Z,1000.5
2022-10-02T11:12:52.195Z,1000.5
2022-10-02T11:14:08.444Z,1000.5
2022-10-02T11:15:23.700Z,1000.4
2022-10-02T11:16:39.934Z,1000.3
2022-10-02T11:17:56.179Z,1000.3
2022-10-02T11:19:12.406Z,1000.2
2022-10-02T11:20:27.667Z,1000.3
2022-10-02T11:21:43.913Z,1000.3
2022-10-02T11:23:00.147Z,1000.2
2022-10-02T11:24:16.385Z,1000.1
2022-10-02T11:25:32.617Z,1000.4
2022-10-02T11:26:48.865Z,1000.4
2022-10-02T11:28:05.106Z,1000.3
2022-10-02T11:29:21.343Z,1000.4
2022-10-02T11:30:37.576Z,1000.4
2022-10-02T11:31:53.813Z,1000.4
2022-10-02T11:33:10.055Z,1000.4
2022-10-02T11:34:26.298Z,1000.2
2022-10-02T11:35:42.528Z,1000.3
2022-10-02T11:36:57.786Z,1000.3
2022-10-02T11:38:14.030Z,1000.3
2022-10-02T11:39:30.258Z,1000.4
2022-10-02T11:40:46.502Z,1000.3
2022-10-02T11:42:02.722Z,1000.4
2022-10-02T11:43:18.949Z,1000.3
2022-10-02T11:44:35.195Z,1000.3
2022-10-02T11:45:51.437Z,1000.3
2022-10-02T11:47:07.658Z,1000.3
2022-10-02T11:48:23.896Z,1000.2
2022-10-02T11:49:40.148Z,1000.4
2022-10-02T11:50:56.378Z,1000.2
2022-10-02T11:52:12.628Z,1000.1
2022-10-02T11:53:27.872Z,1000.2
2022-10-02T11:54:44.105Z,1000.2
2022-10-02T11:56:00.350Z,1000.2
2022-10-02T11:57:16.594Z,1000.3
2022-10-02T11:58:32.827Z,1000.2
2022-10-02T11:59:49.076Z,1000.2
2022-10-02T12:01:05.305Z,1000.2
2022-10-02T12:02:21.544Z,1000.2
2022-10-02T12:03:37.772Z,1000.3
2022-10-02T12:04:54.013Z,1000.3
2022-10-02T12:06:10.000Z,1000.2
2022-10-02T12:07:26.495Z,1000.4
2022-10-02T12:08:42.731Z,1000.3
2022-10-02T12:09:57.986Z,1000.3
2022-10-02T12:11:14.221Z,1000.3
2022-10-02T12:12:30.458Z,1000.2
2022-10-02T12:13:46.713Z,1000.3
2022-10-02T12:15:02.944Z,1000.3
2022-10-02T12:16:19.186Z,1000.3
2022-10-02T12:17:35.430Z,1000.3
2022-10-02T12:18:51.659Z,1000.3
2022-10-02T12:20:07.890Z,1000.3
2022-10-02T12:21:24.137Z,1000.3
2022-10-02T12:22:40.382Z,1000.4
2022-10-02T12:23:56.609Z,1000.4
2022-10-02T12:25:12.842Z,1000.4
2022-10-02T12:26:28.102Z,1000.3
2022-10-02T12:27:44.334Z,1000.4
2022-10-02T12:29:00.582Z,1000.3
2022-10-02T12:30:16.816Z,1000.2
2022-10-02T12:31:33.055Z,1000.2
2022-10-02T12:32:49.292Z,1000.2
2022-10-02T12:34:05.527Z,1000.2
2022-10-02T12:35:21.774Z,1000.2
2022-10-02T12:36:38.011Z,1000.2
2022-10-02T12:37:54.244Z,1000.1
2022-10-02T12:39:10.483Z,1000.2
2022-10-02T12:40:26.716Z,1000.1
2022-10-02T12:41:42.962Z,1000.2
2022-10-02T12:42:58.209Z,1000.2
2022-10-02T12:44:14.462Z,1000.1
2022-10-02T12:45:30.701Z,1000.1
2022-10-02T12:46:46.938Z,1000
2022-10-02T12:48:03.181Z,1000.1
2022-10-02T12:49:19.413Z,1000
2022-10-02T12:50:35.640Z,1000.1
2022-10-02T12:51:51.887Z,1000.1
2022-10-02T12:53:08.123Z,1000.1
2022-10-02T12:54:24.370Z,1000.2
2022-10-02T12:55:40.611Z,1000.1
2022-10-02T12:56:56.832Z,1000.1
2022-10-02T12:58:13.073Z,1000.1
2022-10-02T12:59:28.334Z,1000.2
2022-10-02T13:00:44.573Z,1000
2022-10-02T13:02:00.814Z,1000
2022-10-02T13:03:17.057Z,1000
2022-10-02T13:04:33.291Z,1000.1
2022-10-02T13:05:49.516Z,1000.1
2022-10-02T13:07:05.762Z,1000.1
2022-10-02T13:08:22.006Z,1000.1
2022-10-02T13:09:38.248Z,1000.2
2022-10-02T13:10:54.469Z,1000.1
2022-10-02T13:12:10.718Z,1000.2
2022-10-02T13:13:26.952Z,1000.2
2022-10-02T13:14:43.183Z,1000.1
2022-10-02T13:15:58.439Z,1000.1
2022-10-02T13:17:14.686Z,1000
2022-10-02T13:18:30.914Z,1000
2022-10-02T13:19:47.160Z,1000.2
2022-10-02T13:21:03.410Z,1000.2
2022-10-02T13:22:19.639Z,1000.2
2022-10-02T13:23:35.880Z,1000.3
2022-10-02T13:24:52.111Z,1000.3
2022-10-02T13:26:08.346Z,1000.2
2022-10-02T13:27:24.600Z,1000.2
2022-10-02T13:28:40.828Z,1000.3
2022-10-02T13:29:57.073Z,1000.3
2022-10-02T13:31:13.317Z,1000.3
2022-10-02T13:32:28.562Z,1000.2
2022-10-02T13:33:44.810Z,1000.2
2022-10-02T13:35:01.037Z,1000.1
2022-10-02T13:36:17.281Z,1000.2
2022-10-02T13:37:33.522Z,1000.1
2022-10-02T13:38:49.751Z,1000.2
2022-10-02T13:40:05.983Z,1000.1
2022-10-02T13:41:22.228Z,1000.1
2022-10-02T13:42:38.471Z,1000
2022-10-02T13:43:54.717Z,1000.1
2022-10-02T13:45:10.949Z,1000
2022-10-02T13:46:27.182Z,1000.1
2022-10-02T13:47:43.419Z,1000.1
2022-10-02T13:48:58.677Z,1000.1
2022-10-02T13:50:14.905Z,1000.1
2022-10-02T13:51:31.149Z,1000.1
2022-10-02T13:52:47.384Z,1000.1
2022-10-02T13:54:03.631Z,1000.2
2022-10-02T13:55:19.865Z,1000.2
2022-10-02T13:56:36.104Z,1000.2
2022-10-02T13:57:52.353Z,1000.2
2022-10-02T13:59:08.572Z,1000.1
2022-10-02T14:00:24.817Z,1000.2
2022-10-02T14:01:41.068Z,1000.2
2022-10-02T14:02:57.292Z,1000.2
2022-10-02T14:04:13.529Z,1000.2
2022-10-02T14:05:28.799Z,1000.2
2022-10-02T14:06:45.021Z,1000.1
2022-10-02T14:08:01.257Z,1000.2
2022-10-02T14:09:17.507Z,1000.1
2022-10-02T14:10:33.747Z,1000.2
2022-10-02T14:11:49.988Z,1000.2
2022-10-02T14:13:06.216Z,1000.1
2022-10-02T14:14:22.468Z,1000.2
2022-10-02T14:15:38.689Z,1000.2
2022-10-02T14:16:54.944Z,1000.3
2022-10-02T14:18:11.166Z,1000.3
2022-10-02T14:19:27.418Z,1000.3
2022-10-02T14:20:43.648Z,1000.2
2022-10-02T14:21:59.894Z,1000.3
2022-10-02T14:23:15.146Z,1000.3
2022-10-02T14:24:31.377Z,1000.3
2022-10-02T14:25:47.630Z,1000.3
2022-10-02T14:27:03.864Z,1000.4
2022-10-02T14:28:20.096Z,1000.3
2022-10-02T14:29:36.340Z,1000.4
2022-10-02T14:30:52.566Z,1000.5
2022-10-02T14:32:08.816Z,1000.5
2022-10-02T14:33:25.049Z,1000.4
2022-10-02T14:34:41.294Z,1000.4
2022-10-02T14:35:57.526Z,1000.5
2022-10-02T14:37:13.773Z,1000.4
2022-10-02T14:38:30.014Z,1000.3
2022-10-02T14:39:45.255Z,1000.4
2022-10-02T14:41:01.491Z,1000.3
2022-10-02T14:42:17.726Z,1000.3
2022-10-02T14:43:33.970Z,1000.4
2022-10-02T14:44:50.214Z,1000.4
2022-10-02T14:46:06.442Z,1000.4
2022-10-02T14:47:22.683Z,1000.4
2022-10-02T14:48:38.935Z,1000.4
2022-10-02T14:49:55.161Z,1000.4
2022-10-02T14:51:11.398Z,1000.4
2022-10-02T14:52:27.645Z,1000.4
2022-10-02T14:53:43.883Z,1000.5
2022-10-02T14:55:00.117Z,1000.4
2022-10-02T14:56:15.365Z,1000.4
2022-10-02T14:57:31.618Z,1000.4
2022-10-02T14:58:47.853Z,1000.4
2022-10-02T15:00:04.083Z,1000.5
2022-10-02T15:01:20.326Z,1000.5
2022-10-02T15:02:36.575Z,1000.5
2022-10-02T15:03:52.797Z,1000.5
2022-10-02T15:05:09.037Z,1000.5
2022-10-02T15:06:25.289Z,1000.5
2022-10-02T15:07:41.510Z,1000.5
2022-10-02T15:08:57.749Z,1000.5
2022-10-02T15:10:13.990Z,1000.5
2022-10-02T15:11:30.224Z,1000.5
2022-10-02T15:12:45.497Z,1000.5
2022-10-02T15:14:01.736Z,1000.5
2022-10-02T15:15:17.960Z,1000.6
2022-10-02T15:16:34.195Z,1000.6
2022-10-02T15:17:50.439Z,1000.6
2022-10-02T15:19:06.687Z,1000.7
2022-10-02T15:20:22.928Z,1000.6
2022-10-02T15:21:39.159Z,1000.6
2022-10-02T15:22:55.403Z,1000.7
2022-10-02T15:24:11.631Z,1000.7
2022-10-02T15:25:27.877Z,1000.7
2022-10-02T15:26:44.104Z,1000.7
2022-10-02T15:28:00.337Z,1000.7
2022-10-02T15:29:15.612Z,1000.7
2022-10-02T15:30:31.839Z,1000.7
2022-10-02T15:31:48.074Z,1000.7
2022-10-02T15:33:04.309Z,1000.8
2022-10-02T15:34:20.562Z,1000.7
2022-10-02T15:35:35.816Z,1000.7
2022-10-02T15:36:52.064Z,1000.7
2022-10-02T15:38:08.283Z,1000.7
2022-10-02T15:39:24.529Z,1000.7
2022-10-02T15:40:40.778Z,1000.7
2022-10-02T15:41:57.004Z,1000.8
2022-10-02T15:43:13.243Z,1000.9
2022-10-02T15:44:29.481Z,1000.9
2022-10-02T15:45:45.731Z,1000.9
2022-10-02T15:47:01.964Z,1000.9
2022-10-02T15:48:18.203Z,1001
2022-10-02T15:49:34.441Z,1001.1
2022-10-02T15:50:50.683Z,1001
2022-10-02T15:52:05.935Z,1001.1
2022-10-02T15:53:22.174Z,1001
2022-10-02T15:54:38.414Z,1001
2022-10-02T15:55:54.641Z,1001.2
2022-10-02T15:57:10.879Z,1001.2
2022-10-02T15:58:27.123Z,1001.2
2022-10-02T15:59:43.360Z,1001.4
2022-10-02T16:00:59.601Z,1001.4
2022-10-02T16:02:15.842Z,1001.4
2022-10-02T16:03:32.079Z,1001.4
2022-10-02T16:04:48.318Z,1001.5
2022-10-02T16:06:04.554Z,1001.4
2022-10-02T16:07:20.802Z,1001.4